createdAt,value
2022-09-12T00:03:28.126Z,20.82
2022-09-12T00:08:30.932Z,20.65
2022-09-12T00:13:37.273Z,19.14
2022-09-12T00:18:42.833Z,18.30
2022-09-12T00:23:46.466Z,17.69
2022-09-12T00:28:50.916Z,18.32
2022-09-12T00:33:56.820Z,20.88
2022-09-12T00:39:00.088Z,20.32
2022-09-12T00:44:23.531Z,18.82
2022-09-12T00:49:31.806Z,17.96
2022-09-12T00:54:42.870Z,17.39
2022-09-12T00:59:54.127Z,18.09
2022-09-12T01:04:57.162Z,20.69
2022-09-12T01:10:00.010Z,19.97
2022-09-12T01:15:03.471Z,18.54
2022-09-12T01:20:30.781Z,17.70
2022-09-12T01:25:54.837Z,17.11
2022-09-12T01:31:25.455Z,17.95
2022-09-12T01:36:39.397Z,20.65
2022-09-12T01:41:54.687Z,20.38
2022-09-12T01:47:11.409Z,18.83
2022-09-12T01:52:22.832Z,17.89
2022-09-12T01:57:39.676Z,17.25
2022-09-12T02:03:03.496Z,16.75
2022-09-12T02:08:17.203Z,17.67
2022-09-12T02:13:29.795Z,20.26
2022-09-12T02:18:37.017Z,19.42
2022-09-12T02:23:45.252Z,18.14
2022-09-12T02:28:48.830Z,17.41
2022-09-12T02:34:03.775Z,16.90
2022-09-12T02:39:07.056Z,16.49
2022-09-12T02:44:10.011Z,17.31
2022-09-12T02:49:13.206Z,20.05
2022-09-12T02:54:17.921Z,19.68
2022-09-12T02:59:23.207Z,18.33
2022-09-12T03:05:05.979Z,17.60
2022-09-12T03:10:15.164Z,16.99
2022-09-12T03:15:17.916Z,16.54
2022-09-12T03:20:36.946Z,17.35
2022-09-12T03:26:07.433Z,20.21
2022-09-12T03:31:16.046Z,20.31
2022-09-12T03:36:24.225Z,18.70
2022-09-12T03:41:27.019Z,17.73
2022-09-12T03:46:30.032Z,17.12
2022-09-12T03:51:32.920Z,16.60
2022-09-12T03:56:36.175Z,17.33
2022-09-12T04:01:39.090Z,20.01
2022-09-12T04:06:43.108Z,19.65
2022-09-12T04:11:46.057Z,18.19
2022-09-12T04:16:49.166Z,17.33
2022-09-12T04:21:52.552Z,16.75
2022-09-12T04:26:55.759Z,17.42
2022-09-12T04:31:59.180Z,20.03
2022-09-12T04:37:02.235Z,19.43
2022-09-12T04:42:05.644Z,18.01
2022-09-12T04:47:08.783Z,17.17
2022-09-12T04:52:11.615Z,16.57
2022-09-12T04:57:14.467Z,17.22
2022-09-12T05:02:18.198Z,19.87
2022-09-12T05:07:21.130Z,19.45
2022-09-12T05:12:24.893Z,17.98
2022-09-12T05:17:30.259Z,17.13
2022-09-12T05:22:33.062Z,16.53
2022-09-12T05:27:35.901Z,17.13
2022-09-12T05:32:38.840Z,19.69
2022-09-12T05:37:43.249Z,19.12
2022-09-12T05:42:46.063Z,17.78
2022-09-12T05:47:49.031Z,16.92
2022-09-12T05:52:51.874Z,16.32
2022-09-12T05:57:54.720Z,15.86
2022-09-12T06:02:58.009Z,16.71
2022-09-12T06:08:00.891Z,19.38
2022-09-12T06:13:04.396Z,18.75
2022-09-12T06:18:07.386Z,17.36
2022-09-12T06:23:10.520Z,16.60
2022-09-12T06:28:13.301Z,16.10
2022-09-12T06:33:17.033Z,15.74
2022-09-12T06:38:19.868Z,15.43
2022-09-12T06:43:22.896Z,16.41
2022-09-12T06:48:26.175Z,19.14
2022-09-12T06:53:30.762Z,18.52
2022-09-12T06:58:35.110Z,17.39
2022-09-12T07:03:38.957Z,16.76
2022-09-12T07:08:42.591Z,16.32
2022-09-12T07:13:47.432Z,15.99
2022-09-12T07:18:52.861Z,15.73
2022-09-12T07:23:58.001Z,15.59
2022-09-12T07:29:25.131Z,15.50
2022-09-12T07:34:24.665Z,16.83
2022-09-12T07:39:27.662Z,18.94
2022-09-12T07:44:30.632Z,17.83
2022-09-12T07:49:33.524Z,17.08
2022-09-12T07:54:37.495Z,16.71
2022-09-12T07:59:52.546Z,16.50
2022-09-12T08:04:56.851Z,16.34
2022-09-12T08:10:00.563Z,16.21
2022-09-12T08:15:04.195Z,16.08
2022-09-12T08:20:09.384Z,15.97
2022-09-12T08:25:12.277Z,15.98
2022-09-12T08:30:15.218Z,15.91
2022-09-12T08:35:18.550Z,15.81
2022-09-12T08:40:21.795Z,15.76
2022-09-12T08:45:38.917Z,15.84
2022-09-12T08:50:49.229Z,15.95
2022-09-12T08:55:53.970Z,16.07
2022-09-12T09:01:01.386Z,16.10
2022-09-12T09:06:33.468Z,16.16
2022-09-12T09:12:04.863Z,16.29
2022-09-12T09:17:21.565Z,16.40
2022-09-12T09:22:39.904Z,16.55
2022-09-12T09:27:49.353Z,16.64
2022-09-12T09:32:57.601Z,16.76
2022-09-12T09:38:08.865Z,16.91
2022-09-12T09:43:23.778Z,16.97
2022-09-12T09:48:35.964Z,17.07
2022-09-12T09:54:00.472Z,17.09
2022-09-12T09:59:09.282Z,17.22
2022-09-12T10:04:26.096Z,17.38
2022-09-12T10:09:37.453Z,17.52
2022-09-12T10:14:41.946Z,17.66
2022-09-12T10:19:49.860Z,17.83
2022-09-12T10:25:11.802Z,17.99
2022-09-12T10:30:14.764Z,18.13
2022-09-12T10:35:21.291Z,18.15
2022-09-12T10:40:32.716Z,18.29
2022-09-12T10:45:37.879Z,18.54
2022-09-12T10:50:43.668Z,18.61
2022-09-12T10:55:57.408Z,18.67
2022-09-12T11:01:28.582Z,18.70
2022-09-12T11:06:48.388Z,18.79
2022-09-12T11:11:53.892Z,18.86
2022-09-12T11:17:22.294Z,18.82
2022-09-12T11:22:48.548Z,18.81
2022-09-12T11:28:28.289Z,18.92
2022-09-12T11:33:43.150Z,19.02
2022-09-12T11:39:03.842Z,19.20
2022-09-12T11:44:15.848Z,19.39
2022-09-12T11:49:33.539Z,19.46
2022-09-12T11:54:53.934Z,19.56
2022-09-12T12:00:11.059Z,19.76
2022-09-12T12:05:37.579Z,20.05
2022-09-12T12:10:43.280Z,20.37
2022-09-12T12:15:51.133Z,20.60
2022-09-12T12:20:56.218Z,20.68
2022-09-12T12:26:01.106Z,20.69
2022-09-12T12:31:05.892Z,20.94
2022-09-12T12:36:10.973Z,21.16
2022-09-12T12:41:16.877Z,21.08
2022-09-12T12:46:24.891Z,21.17
2022-09-12T12:51:31.058Z,21.41
2022-09-12T12:56:41.307Z,21.66
2022-09-12T13:01:51.483Z,21.95
2022-09-12T13:07:07.711Z,22.28
2022-09-12T13:12:18.719Z,22.34
2022-09-12T13:17:47.899Z,22.19
2022-09-12T13:22:52.797Z,22.20
2022-09-12T13:28:07.951Z,22.37
2022-09-12T13:33:18.650Z,22.64
2022-09-12T13:38:57.801Z,22.78
2022-09-12T13:44:02.529Z,22.48
2022-09-12T13:49:38.880Z,22.35
2022-09-12T13:54:45.845Z,22.35
2022-09-12T13:59:49.697Z,22.31
2022-09-12T14:05:23.459Z,22.20
2022-09-12T14:10:32.006Z,21.96
2022-09-12T14:15:37.771Z,21.67
2022-09-12T14:20:42.049Z,21.39
2022-09-12T14:25:48.105Z,21.17
2022-09-12T14:31:03.781Z,20.99
2022-09-12T14:36:19.855Z,20.88
2022-09-12T14:41:29.610Z,20.80
2022-09-12T14:46:37.054Z,20.73
2022-09-12T14:51:50.744Z,20.66
2022-09-12T14:57:00.983Z,20.54
2022-09-12T15:02:22.141Z,20.44
2022-09-12T15:07:42.548Z,20.34
2022-09-12T15:12:45.355Z,20.27
2022-09-12T15:17:48.366Z,20.19
2022-09-12T15:22:51.819Z,20.15
2022-09-12T15:27:56.153Z,20.09
2022-09-12T15:33:00.220Z,20.00
2022-09-12T15:38:03.306Z,19.91
2022-09-12T15:43:06.498Z,19.83
2022-09-12T15:48:09.836Z,19.75
2022-09-12T15:53:17.319Z,19.67
2022-09-12T15:58:20.790Z,19.60
2022-09-12T16:03:28.838Z,19.54
2022-09-12T16:08:33.085Z,19.47
2022-09-12T16:13:37.369Z,19.38
2022-09-12T16:18:40.972Z,19.30
2022-09-12T16:23:44.842Z,19.20
2022-09-12T16:28:47.898Z,19.12
2022-09-12T16:33:50.893Z,19.03
2022-09-12T16:38:54.704Z,18.93
2022-09-12T16:43:58.247Z,18.81
2022-09-12T16:49:01.537Z,18.69
2022-09-12T16:54:04.899Z,18.58
2022-09-12T16:59:12.255Z,18.47
2022-09-12T17:04:15.175Z,18.35
2022-09-12T17:09:18.785Z,18.23
2022-09-12T17:14:21.692Z,18.11
2022-09-12T17:19:29.766Z,18.00
2022-09-12T17:24:33.241Z,17.90
2022-09-12T17:29:37.705Z,17.81
2022-09-12T17:34:40.677Z,17.74
2022-09-12T17:39:44.164Z,17.69
2022-09-12T17:44:47.742Z,17.65
2022-09-12T17:50:05.157Z,17.58
2022-09-12T17:55:17.271Z,17.52
2022-09-12T18:00:40.851Z,17.44
2022-09-12T18:05:48.459Z,17.37
2022-09-12T18:10:52.356Z,17.28
2022-09-12T18:15:55.697Z,17.19
2022-09-12T18:20:59.090Z,17.10
2022-09-12T18:26:05.187Z,17.03
2022-09-12T18:31:15.502Z,16.97
2022-09-12T18:36:19.939Z,16.95
2022-09-12T18:41:24.904Z,16.95
2022-09-12T18:46:29.972Z,16.95
2022-09-12T18:51:36.030Z,16.97
2022-09-12T18:56:41.007Z,16.98
2022-09-12T19:01:45.016Z,16.97
2022-09-12T19:06:50.457Z,16.93
2022-09-12T19:11:54.191Z,16.91
2022-09-12T19:16:57.279Z,16.90
2022-09-12T19:22:00.463Z,16.90
2022-09-12T19:27:04.101Z,16.92
2022-09-12T19:32:07.722Z,16.92
2022-09-12T19:37:10.744Z,16.92
2022-09-12T19:42:13.627Z,16.91
2022-09-12T19:47:16.640Z,16.88
2022-09-12T19:52:19.696Z,16.85
2022-09-12T19:57:22.776Z,16.81
2022-09-12T20:02:28.042Z,16.77
2022-09-12T20:07:31.075Z,16.73
2022-09-12T20:12:34.226Z,16.68
2022-09-12T20:17:37.116Z,16.62
2022-09-12T20:22:40.350Z,16.55
2022-09-12T20:27:43.724Z,16.49
2022-09-12T20:32:46.888Z,16.43
2022-09-12T20:37:49.850Z,16.36
2022-09-12T20:42:53.007Z,16.30
2022-09-12T20:47:55.895Z,16.25
2022-09-12T20:52:59.131Z,16.20
2022-09-12T20:58:02.327Z,16.17
2022-09-12T21:03:05.304Z,16.12
2022-09-12T21:08:08.314Z,16.05
2022-09-12T21:13:13.342Z,15.94
2022-09-12T21:18:16.176Z,15.82
2022-09-12T21:23:19.082Z,15.71
2022-09-12T21:28:22.315Z,15.62
2022-09-12T21:33:25.145Z,15.56
2022-09-12T21:38:28.074Z,15.51
2022-09-12T21:43:31.085Z,15.44
2022-09-12T21:48:34.436Z,16.32
2022-09-12T21:53:37.565Z,19.34
2022-09-12T21:58:40.607Z,20.12
2022-09-12T22:03:44.954Z,18.68
2022-09-12T22:08:47.844Z,17.86
2022-09-12T22:13:50.740Z,17.32
2022-09-12T22:18:54.049Z,16.90
2022-09-12T22:24:26.224Z,16.53
2022-09-12T22:29:29.172Z,16.22
2022-09-12T22:34:32.009Z,15.99
2022-09-12T22:39:34.968Z,15.80
2022-09-12T22:44:37.822Z,16.69
2022-09-12T22:49:42.844Z,19.61
2022-09-12T22:54:46.144Z,19.97
2022-09-12T22:59:49.237Z,18.49
2022-09-12T23:04:52.554Z,17.62
2022-09-12T23:09:55.372Z,17.04
2022-09-12T23:14:58.265Z,16.58
2022-09-12T23:20:01.538Z,16.21
2022-09-12T23:25:04.835Z,15.90
2022-09-12T23:30:09.492Z,15.66
2022-09-12T23:35:16.162Z,16.61
2022-09-12T23:40:19.071Z,19.45
2022-09-12T23:45:21.997Z,20.05
2022-09-12T23:50:24.847Z,18.57
2022-09-12T23:55:27.695Z,17.66
